Robert G. Stone, Jr. — WDD4596 — position and weather

sailwx.info

Track history (hours):
 
Tides and Currents Weather Stations Pressure Air Temp Water Temp Dewpoint Dewpoint Depression Visibility Wind Speed Wind Dir Waves Ship Positions

Robert G. Stone, Jr.

Owner: Kirby Inland Marine, LP, Houston, TX. More information available from US FCC via Universal Licensing System and Coast Guard Vessel Documentation Center.

Last reported at 2014-Oct-11 03:33 UTC. Time now 2014-Oct-24 20:41 UTC.
Position N 29°35' W 090°58'.
Warning: this ship's position is 13 days out of date.

Length 27 m; draft 3.1 m.

Type: Towing. MMSI: 367146780.

Date/timePositionNaut miles runAvg speedWind from/ knotsBaromVisibWave heightAir tempDewpointWater temp
2014-Oct-11 03:33N 29°35' W 090°58'5 5.2
2014-Oct-11 02:33N 29°37' W 091°03'4 3.7
2014-Oct-11 01:33N 29°38' W 091°07'4 3.7
2014-Oct-11 00:33N 29°41' W 091°10'2 2.1
2014-Oct-10 23:33N 29°41' W 091°13'1 0.7
2014-Oct-10 22:33N 29°41' W 091°13'5 5.4
2014-Oct-10 21:33N 29°38' W 091°19'5 5.3
2014-Oct-10 20:33N 29°39' W 091°25'5 4.9
2014-Oct-10 19:33N 29°42' W 091°30'182 3.8
2014-Oct-08 19:32N 29°17' W 094°57'14 2.3
2014-Oct-08 13:20N 29°14' W 095°13'0 0.0
2014-Oct-07 06:16N 29°14' W 095°13'1 0.0
2014-Oct-06 13:16N 29°15' W 095°13'2 0.0
2014-Oct-04 12:33N 29°13' W 095°13'  
2014-Oct-02 01:17N 29°21' W 094°49'8 8.8
2014-Oct-02 00:22N 29°29' W 094°52'7 9.2
2014-Oct-01 23:33N 29°35' W 094°56'9 9.1
2014-Oct-01 22:33N 29°43' W 095°01'5 4.7
2014-Oct-01 21:32N 29°47' W 095°04'0 0.4
2014-Oct-01 20:29N 29°47' W 095°04'0 0.1
2014-Oct-01 19:19N 29°47' W 095°04'0 0.1
2014-Oct-01 18:33N 29°47' W 095°04'0 0.0
2014-Oct-01 17:33N 29°47' W 095°04'0 0.0
2014-Oct-01 16:33N 29°47' W 095°04'0 0.0
2014-Oct-01 15:33N 29°47' W 095°04'0 0.0
2014-Oct-01 14:33N 29°47' W 095°04'0 0.0
2014-Oct-01 13:33N 29°47' W 095°04'0 0.0
2014-Oct-01 12:33N 29°47' W 095°04'0 0.0
2014-Oct-01 11:33N 29°47' W 095°04'0 0.0
2014-Oct-01 10:33N 29°47' W 095°04'0 0.0
2014-Oct-01 09:33N 29°47' W 095°04'0 0.0
2014-Oct-01 08:33N 29°47' W 095°04'0 0.0
2014-Oct-01 07:33N 29°47' W 095°04'0 0.0
2014-Oct-01 06:33N 29°47' W 095°04'0 0.0
2014-Oct-01 05:33N 29°47' W 095°04'0 0.0
2014-Oct-01 04:33N 29°47' W 095°04'0 0.0
2014-Oct-01 03:33N 29°47' W 095°04'  
Track history (hours):
 
Tides and Currents Weather Stations Pressure Air Temp Water Temp Dewpoint Dewpoint Depression Visibility Wind Speed Wind Dir Waves Ship Positions

Robert G. Stone, Jr.

Owner: Kirby Inland Marine, LP, Houston, TX. More information available from US FCC via Universal Licensing System and Coast Guard Vessel Documentation Center.

Last reported at 2014-Oct-11 03:33 UTC. Time now 2014-Oct-24 20:41 UTC.
Position N 29°35' W 090°58'.
Warning: this ship's position is 13 days out of date.

Length 27 m; draft 3.1 m.

Type: Towing. MMSI: 367146780.

Date/timePositionNaut miles runAvg speedWind from/ knotsBaromVisibWave heightAir tempDewpointWater temp
2014-Oct-11 03:33N 29°35' W 090°58'5 5.2
2014-Oct-11 02:33N 29°37' W 091°03'4 3.7
2014-Oct-11 01:33N 29°38' W 091°07'4 3.7
2014-Oct-11 00:33N 29°41' W 091°10'2 2.1
2014-Oct-10 23:33N 29°41' W 091°13'1 0.7
2014-Oct-10 22:33N 29°41' W 091°13'5 5.4
2014-Oct-10 21:33N 29°38' W 091°19'5 5.3
2014-Oct-10 20:33N 29°39' W 091°25'5 4.9
2014-Oct-10 19:33N 29°42' W 091°30'182 3.8
2014-Oct-08 19:32N 29°17' W 094°57'14 2.3
2014-Oct-08 13:20N 29°14' W 095°13'0 0.0
2014-Oct-07 06:16N 29°14' W 095°13'1 0.0
2014-Oct-06 13:16N 29°15' W 095°13'2 0.0
2014-Oct-04 12:33N 29°13' W 095°13'  
2014-Oct-02 01:17N 29°21' W 094°49'8 8.8
2014-Oct-02 00:22N 29°29' W 094°52'7 9.2
2014-Oct-01 23:33N 29°35' W 094°56'9 9.1
2014-Oct-01 22:33N 29°43' W 095°01'5 4.7
2014-Oct-01 21:32N 29°47' W 095°04'0 0.4
2014-Oct-01 20:29N 29°47' W 095°04'0 0.1
2014-Oct-01 19:19N 29°47' W 095°04'0 0.1
2014-Oct-01 18:33N 29°47' W 095°04'0 0.0
2014-Oct-01 17:33N 29°47' W 095°04'0 0.0
2014-Oct-01 16:33N 29°47' W 095°04'0 0.0
2014-Oct-01 15:33N 29°47' W 095°04'0 0.0
2014-Oct-01 14:33N 29°47' W 095°04'0 0.0
2014-Oct-01 13:33N 29°47' W 095°04'0 0.0
2014-Oct-01 12:33N 29°47' W 095°04'0 0.0
2014-Oct-01 11:33N 29°47' W 095°04'0 0.0
2014-Oct-01 10:33N 29°47' W 095°04'0 0.0
2014-Oct-01 09:33N 29°47' W 095°04'0 0.0
2014-Oct-01 08:33N 29°47' W 095°04'0 0.0
2014-Oct-01 07:33N 29°47' W 095°04'0 0.0
2014-Oct-01 06:33N 29°47' W 095°04'0 0.0
2014-Oct-01 05:33N 29°47' W 095°04'0 0.0
2014-Oct-01 04:33N 29°47' W 095°04'0 0.0
2014-Oct-01 03:33N 29°47' W 095°04'  

Dump ship's entire track history